Time;durP1;ratioP1;P1;durP2;ratioP2;P2;SDS_P1;SDS_P2;PMS_P1;PMS_P2;Temp;Humidity;BMP_temperature;BMP_pressure;BME280_temperature;BME280_humidity;BME280_pressure;Samples;Min_cycle;Max_cycle;Signal;HPM_P1;HPM_P2
2021/03/13 00:00:16;;;;;;;77.63;11.07;;;4.10;99.90;;;;;;5033691;28;20443;-79
2021/03/13 00:02:43;;;;;;;78.30;8.15;;;4.10;99.90;;;;;;5068667;28;20040;-79
2021/03/13 00:05:11;;;;;;;69.93;8.25;;;4.10;99.90;;;;;;5052082;28;20029;-79
2021/03/13 00:07:37;;;;;;;56.42;5.80;;;4.20;99.90;;;;;;5051427;28;20020;-79
2021/03/13 00:10:04;;;;;;;66.97;7.55;;;4.20;99.90;;;;;;5051565;28;20159;-79
2021/03/13 00:12:29;;;;;;;70.50;8.32;;;4.10;99.90;;;;;;5051507;28;20036;-80
2021/03/13 00:14:55;;;;;;;57.38;6.63;;;4.10;99.90;;;;;;5050445;28;20029;-79
2021/03/13 00:17:20;;;;;;;65.68;8.20;;;4.10;99.90;;;;;;5051383;28;20028;-79
2021/03/13 00:19:46;;;;;;;72.13;6.20;;;4.10;99.90;;;;;;5050740;28;20033;-79
2021/03/13 00:22:11;;;;;;;56.78;6.88;;;4.20;99.90;;;;;;5051458;28;20126;-79
2021/03/13 00:24:37;;;;;;;60.60;7.25;;;4.10;99.90;;;;;;5050356;28;20037;-79
2021/03/13 00:27:03;;;;;;;74.78;7.15;;;4.20;99.90;;;;;;5051169;28;20021;-79
2021/03/13 00:29:29;;;;;;;66.10;10.25;;;4.20;99.90;;;;;;5051289;28;20021;-79
2021/03/13 00:31:55;;;;;;;55.10;7.68;;;4.30;99.90;;;;;;5051402;28;20017;-79
2021/03/13 00:34:21;;;;;;;49.15;6.25;;;4.20;99.90;;;;;;5031709;28;20032;-79
2021/03/13 00:36:50;;;;;;;74.43;8.18;;;4.30;99.90;;;;;;5050786;28;20401;-79
2021/03/13 00:39:16;;;;;;;59.38;7.13;;;4.30;99.90;;;;;;5051222;28;20497;-79
2021/03/13 00:41:42;;;;;;;42.20;7.00;;;4.30;99.90;;;;;;5051201;28;20043;-79
2021/03/13 00:44:08;;;;;;;55.97;6.90;;;4.30;99.90;;;;;;5050346;28;20423;-79
2021/03/13 00:46:34;;;;;;;62.65;7.10;;;4.30;99.90;;;;;;5050741;28;20417;-79
2021/03/13 00:49:00;;;;;;;70.68;7.38;;;4.40;99.90;;;;;;5050718;28;20021;-79
2021/03/13 00:51:25;;;;;;;50.95;7.13;;;4.40;99.90;;;;;;5051239;28;20123;-79
2021/03/13 00:53:51;;;;;;;53.28;6.45;;;4.40;99.90;;;;;;5050608;28;20456;-79
2021/03/13 00:56:17;;;;;;;58.65;6.90;;;4.40;99.90;;;;;;5050515;28;20037;-79
2021/03/13 00:58:42;;;;;;;58.17;7.20;;;4.40;99.90;;;;;;5050973;28;20068;-79
2021/03/13 01:01:08;;;;;;;59.25;7.68;;;4.50;99.90;;;;;;5051030;28;20024;-79
2021/03/13 01:03:33;;;;;;;83.18;6.53;;;4.50;99.90;;;;;;5032462;28;20032;-79
2021/03/13 01:05:59;;;;;;;62.42;6.25;;;4.50;99.90;;;;;;5051139;28;20112;-79
2021/03/13 01:08:24;;;;;;;58.65;6.13;;;4.40;99.90;;;;;;5054846;28;20366;-79
2021/03/13 01:10:51;;;;;;;54.92;6.90;;;4.50;99.90;;;;;;5054740;28;20588;-79
2021/03/13 01:13:20;;;;;;;45.80;6.15;;;4.50;99.90;;;;;;5054605;28;20074;-80
2021/03/13 01:15:46;;;;;;;54.35;5.55;;;4.50;99.90;;;;;;5034284;28;20482;-79
2021/03/13 01:18:11;;;;;;;69.72;7.60;;;4.50;99.90;;;;;;5036645;28;20025;-79
2021/03/13 01:20:37;;;;;;;61.08;6.50;;;4.50;99.90;;;;;;5054680;28;20470;-79
2021/03/13 01:23:03;;;;;;;64.15;7.03;;;4.40;99.90;;;;;;5054769;28;20029;-80
2021/03/13 01:25:28;;;;;;;55.75;5.85;;;4.50;99.90;;;;;;5035830;28;20039;-79
2021/03/13 01:27:54;;;;;;;67.07;6.25;;;4.50;99.90;;;;;;5054212;28;20025;-79
2021/03/13 01:30:21;;;;;;;63.13;7.45;;;4.40;99.90;;;;;;5054482;28;20052;-79
2021/03/13 01:32:51;;;;;;;78.35;5.82;;;4.40;99.90;;;;;;5036565;28;20120;-79
2021/03/13 01:35:17;;;;;;;40.83;5.90;;;4.50;99.90;;;;;;5053459;28;20041;-79
2021/03/13 01:37:43;;;;;;;45.67;8.07;;;4.50;99.90;;;;;;5060312;28;20112;-79
2021/03/13 01:40:14;;;;;;;49.00;5.75;;;4.50;99.90;;;;;;5056393;28;20704;-79
2021/03/13 01:42:40;;;;;;;53.83;5.32;;;4.50;99.90;;;;;;5056558;28;20035;-80
2021/03/13 01:45:07;;;;;;;46.38;6.05;;;4.50;99.90;;;;;;5058109;28;20033;-80
2021/03/13 01:47:33;;;;;;;49.08;5.90;;;4.40;99.90;;;;;;5053752;28;20028;-80
2021/03/13 01:49:59;;;;;;;66.25;6.28;;;4.40;99.90;;;;;;5053985;28;20036;-80
2021/03/13 01:52:25;;;;;;;58.00;5.50;;;4.40;99.90;;;;;;5054288;28;20029;-80
2021/03/13 01:54:50;;;;;;;40.08;4.00;;;4.30;99.90;;;;;;5053187;28;20060;-79
2021/03/13 01:57:17;;;;;;;43.92;5.32;;;4.30;99.90;;;;;;5035925;28;20078;-79
2021/03/13 01:59:43;;;;;;;37.38;4.53;;;4.40;99.90;;;;;;5035458;28;20025;-80
2021/03/13 02:02:11;;;;;;;37.70;3.88;;;4.20;99.90;;;;;;5036361;28;20568;-80
2021/03/13 02:04:37;;;;;;;42.05;5.22;;;4.10;99.90;;;;;;5053091;28;20184;-79
2021/03/13 02:07:18;;;;;;;42.85;4.80;;;4.00;99.90;;;;;;5053748;28;20553;-80
2021/03/13 02:10:00;;;;;;;30.52;4.20;;;4.00;99.90;;;;;;5053848;28;20025;-80
2021/03/13 02:12:48;;;;;;;29.98;3.53;;;4.00;99.90;;;;;;5053901;28;20017;-79
2021/03/13 02:15:25;;;;;;;42.72;5.25;;;3.90;99.90;;;;;;5052852;28;20059;-79
2021/03/13 02:18:10;;;;;;;35.65;4.03;;;3.80;99.90;;;;;;5023003;28;20124;-80
2021/03/13 02:21:01;;;;;;;28.80;3.97;;;3.80;99.90;;;;;;5033397;28;20035;-79
2021/03/13 02:23:29;;;;;;;19.65;3.03;;;3.70;99.90;;;;;;5015484;28;20099;-80
2021/03/13 02:26:13;;;;;;;37.10;4.13;;;3.60;99.90;;;;;;5033754;28;20079;-79
2021/03/13 02:28:52;;;;;;;29.58;3.90;;;3.60;99.90;;;;;;5035436;28;20481;-80
2021/03/13 02:31:20;;;;;;;32.50;4.85;;;3.50;99.90;;;;;;5035618;28;20033;-79
2021/03/13 02:33:47;;;;;;;35.17;4.18;;;3.50;99.90;;;;;;5034593;28;20063;-79
2021/03/13 02:36:16;;;;;;;22.48;3.38;;;3.40;99.90;;;;;;5052961;28;20079;-79
2021/03/13 02:38:53;;;;;;;27.83;5.10;;;3.40;99.90;;;;;;5035324;28;20052;-79
2021/03/13 02:41:22;;;;;;;18.75;3.30;;;3.40;99.90;;;;;;5034999;28;20052;-80
2021/03/13 02:43:51;;;;;;;21.02;3.42;;;3.40;99.90;;;;;;5052384;28;20035;-79
2021/03/13 02:46:21;;;;;;;28.55;4.20;;;3.40;99.90;;;;;;5053199;28;20028;-79
2021/03/13 02:48:47;;;;;;;28.77;3.75;;;3.40;99.90;;;;;;5052887;28;20107;-79
2021/03/13 02:51:20;;;;;;;28.98;3.88;;;3.50;99.90;;;;;;5052839;28;20473;-79
2021/03/13 02:53:47;;;;;;;24.55;4.25;;;3.50;99.90;;;;;;5052539;28;20082;-80
2021/03/13 02:56:15;;;;;;;36.28;5.97;;;3.60;99.90;;;;;;5053177;28;20035;-79
2021/03/13 02:58:44;;;;;;;33.05;5.18;;;3.70;99.90;;;;;;5052405;28;20417;-79
2021/03/13 03:01:10;;;;;;;36.38;4.57;;;3.70;99.90;;;;;;5052884;28;20044;-79
2021/03/13 03:03:37;;;;;;;21.73;3.75;;;3.80;99.90;;;;;;5034407;28;20056;-79
2021/03/13 03:06:03;;;;;;;34.35;4.88;;;3.80;99.90;;;;;;5052234;28;20120;-79
2021/03/13 03:08:29;;;;;;;52.38;5.88;;;3.80;99.90;;;;;;5052807;28;20100;-80
2021/03/13 03:10:56;;;;;;;27.08;5.47;;;3.70;99.90;;;;;;5034346;28;20029;-79
2021/03/13 03:13:26;;;;;;;28.15;5.68;;;3.80;99.90;;;;;;5052490;28;20538;-79
2021/03/13 03:15:53;;;;;;;35.42;5.85;;;3.80;99.90;;;;;;5051944;28;20021;-79
2021/03/13 03:18:25;;;;;;;62.33;7.60;;;3.90;99.90;;;;;;5051472;28;20440;-80
2021/03/13 03:20:52;;;;;;;40.35;7.03;;;3.80;99.90;;;;;;5051172;28;20107;-80
2021/03/13 03:23:18;;;;;;;44.65;6.55;;;3.80;99.90;;;;;;5052342;28;20017;-80
2021/03/13 03:25:43;;;;;;;42.65;7.03;;;3.90;99.90;;;;;;5051839;28;20040;-80
2021/03/13 03:28:13;;;;;;;43.60;8.15;;;3.80;99.90;;;;;;5034355;28;20029;-79
2021/03/13 03:30:39;;;;;;;35.50;7.72;;;3.90;99.90;;;;;;5033776;28;20497;-79
2021/03/13 03:33:05;;;;;;;56.35;8.18;;;3.80;99.90;;;;;;5052000;28;20032;-80
2021/03/13 03:35:31;;;;;;;45.60;8.30;;;3.70;99.90;;;;;;5033527;28;20025;-80
2021/03/13 03:37:59;;;;;;;69.00;11.88;;;3.70;99.90;;;;;;5052098;28;20098;-79
2021/03/13 03:40:27;;;;;;;47.58;8.88;;;3.60;99.90;;;;;;5051689;28;20050;-80
2021/03/13 03:43:01;;;;;;;43.08;9.50;;;3.70;99.90;;;;;;5033820;28;20401;-79
2021/03/13 03:45:29;;;;;;;61.30;10.93;;;3.80;99.90;;;;;;5033462;28;20036;-79
2021/03/13 03:47:55;;;;;;;69.55;10.68;;;3.90;99.90;;;;;;5052124;28;20021;-80
2021/03/13 03:50:23;;;;;;;74.32;11.50;;;4.00;99.90;;;;;;5051384;28;20051;-80
2021/03/13 03:52:54;;;;;;;71.65;13.02;;;4.10;99.90;;;;;;5052100;28;20028;-79
2021/03/13 03:55:20;;;;;;;58.03;12.80;;;4.10;99.90;;;;;;5033577;28;20552;-81
2021/03/13 03:57:47;;;;;;;64.57;12.50;;;4.10;99.90;;;;;;5051927;28;20163;-80
2021/03/13 04:00:15;;;;;;;63.22;11.35;;;4.10;99.90;;;;;;5051537;28;20500;-79
2021/03/13 04:02:43;;;;;;;59.13;12.15;;;4.20;99.90;;;;;;5033982;28;20119;-79
2021/03/13 04:05:12;;;;;;;63.63;11.95;;;4.20;99.90;;;;;;5050799;28;20032;-80
2021/03/13 04:07:38;;;;;;;71.55;11.88;;;4.30;99.90;;;;;;5051746;28;20032;-79
2021/03/13 04:10:07;;;;;;;67.35;14.98;;;4.30;99.90;;;;;;5051450;28;20032;-80
2021/03/13 04:12:35;;;;;;;67.32;13.45;;;4.40;99.90;;;;;;5051708;28;20040;-79
2021/03/13 04:15:01;;;;;;;68.30;11.73;;;4.40;99.90;;;;;;5050968;28;20029;-80
2021/03/13 04:17:32;;;;;;;62.42;12.85;;;4.30;99.90;;;;;;5051744;28;20025;-80
2021/03/13 04:19:58;;;;;;;56.30;12.00;;;4.40;99.90;;;;;;5051203;28;20460;-80
2021/03/13 04:22:24;;;;;;;68.28;14.80;;;4.40;99.90;;;;;;5051056;28;20037;-80
2021/03/13 04:24:51;;;;;;;69.47;14.65;;;4.40;99.90;;;;;;5050909;28;20400;-80
2021/03/13 04:27:18;;;;;;;75.38;14.32;;;4.40;99.90;;;;;;5051519;28;20099;-80
2021/03/13 04:29:45;;;;;;;72.53;15.82;;;4.40;99.90;;;;;;5051134;28;20378;-79
2021/03/13 04:32:13;;;;;;;76.35;14.48;;;4.30;99.90;;;;;;5051479;28;20025;-80
2021/03/13 04:34:41;;;;;;;70.35;15.52;;;4.40;99.90;;;;;;5050911;28;20481;-80
2021/03/13 04:37:07;;;;;;;59.25;15.35;;;4.40;99.90;;;;;;5051200;28;20092;-80
2021/03/13 04:39:33;;;;;;;44.80;13.68;;;4.40;99.90;;;;;;5051309;28;20484;-80
2021/03/13 04:41:59;;;;;;;61.53;18.35;;;4.40;99.90;;;;;;5058543;28;20039;-80
2021/03/13 04:44:25;;;;;;;60.75;14.15;;;4.40;99.90;;;;;;5058319;28;20025;-80
2021/03/13 04:46:52;;;;;;;61.53;16.27;;;4.40;99.90;;;;;;5057854;28;20071;-79
2021/03/13 04:49:18;;;;;;;69.10;16.45;;;4.40;99.90;;;;;;5057342;28;20107;-80
2021/03/13 04:51:44;;;;;;;61.60;15.82;;;4.50;99.90;;;;;;5057909;28;20584;-80
2021/03/13 04:54:13;;;;;;;57.00;15.85;;;4.40;99.90;;;;;;5057188;28;20035;-80
2021/03/13 04:56:39;;;;;;;62.45;15.50;;;4.40;99.90;;;;;;5039965;28;20021;-80
2021/03/13 04:59:04;;;;;;;48.35;14.98;;;4.40;99.90;;;;;;5039558;28;20039;-80
2021/03/13 05:01:30;;;;;;;68.07;17.10;;;4.40;99.90;;;;;;5057787;28;20032;-80
2021/03/13 05:03:55;;;;;;;65.28;16.20;;;4.40;99.90;;;;;;5057035;28;20033;-79
2021/03/13 05:06:21;;;;;;;60.20;16.15;;;4.40;99.90;;;;;;5057845;28;20020;-80
2021/03/13 05:08:46;;;;;;;57.35;15.57;;;4.40;99.90;;;;;;5057787;28;20114;-80
2021/03/13 05:11:12;;;;;;;52.30;15.23;;;4.30;99.90;;;;;;5057733;28;20039;-79
2021/03/13 05:13:38;;;;;;;62.15;15.23;;;4.30;99.90;;;;;;5057220;28;20048;-80
2021/03/13 05:16:04;;;;;;;75.72;15.90;;;4.30;99.90;;;;;;5057298;28;20039;-80
2021/03/13 05:18:30;;;;;;;66.53;15.38;;;4.20;99.90;;;;;;5057381;28;20021;-80
2021/03/13 05:20:55;;;;;;;56.50;17.13;;;4.30;99.90;;;;;;5057597;28;20026;-80
2021/03/13 05:23:21;;;;;;;68.05;17.23;;;4.20;99.90;;;;;;5057681;28;20056;-80
2021/03/13 05:25:46;;;;;;;46.88;14.05;;;4.30;99.90;;;;;;5038480;28;20041;-79
2021/03/13 05:28:13;;;;;;;67.40;15.68;;;4.30;99.90;;;;;;5057632;28;20095;-79
2021/03/13 05:30:40;;;;;;;49.47;14.50;;;4.30;99.90;;;;;;5057922;28;20131;-80
2021/03/13 05:33:06;;;;;;;49.80;15.25;;;4.30;99.90;;;;;;5057186;28;20021;-80
2021/03/13 05:35:32;;;;;;;54.13;16.50;;;4.30;99.90;;;;;;5056884;28;20056;-80
2021/03/13 05:37:57;;;;;;;52.03;14.77;;;4.30;99.90;;;;;;5057463;28;20067;-79
2021/03/13 05:40:23;;;;;;;58.40;15.38;;;4.30;99.90;;;;;;5057497;28;20028;-79
2021/03/13 05:42:50;;;;;;;65.47;15.77;;;4.20;99.90;;;;;;5039629;28;20426;-79
2021/03/13 05:45:17;;;;;;;59.78;16.20;;;4.20;99.90;;;;;;5056404;28;20051;-80
2021/03/13 05:47:42;;;;;;;53.90;15.23;;;4.10;99.90;;;;;;5057438;28;20021;-79
2021/03/13 05:50:15;;;;;;;50.63;15.18;;;4.20;99.90;;;;;;5056706;28;20036;-79
2021/03/13 05:52:45;;;;;;;47.45;17.15;;;4.10;99.90;;;;;;5054101;28;20020;-79
2021/03/13 05:55:11;;;;;;;54.22;16.77;;;4.10;99.90;;;;;;5053311;28;20035;-79
2021/03/13 05:57:38;;;;;;;69.32;20.85;;;4.10;99.90;;;;;;5035968;28;20040;-79
2021/03/13 06:00:05;;;;;;;76.07;16.55;;;4.00;99.90;;;;;;5054116;28;20029;-79
2021/03/13 06:02:31;;;;;;;38.05;15.88;;;4.00;99.90;;;;;;5036228;28;20060;-79
2021/03/13 06:04:56;;;;;;;68.88;18.65;;;4.00;99.90;;;;;;5052954;28;20118;-79
2021/03/13 06:07:24;;;;;;;52.70;15.48;;;4.00;99.90;;;;;;5054083;28;20400;-79
2021/03/13 06:09:54;;;;;;;74.22;17.88;;;4.00;99.90;;;;;;5053865;28;20056;-79
2021/03/13 06:12:20;;;;;;;53.45;15.93;;;4.00;99.90;;;;;;5053969;28;20104;-79
2021/03/13 06:14:51;;;;;;;46.28;17.13;;;4.00;99.90;;;;;;5052978;28;20135;-79
2021/03/13 06:17:17;;;;;;;61.72;16.42;;;4.00;99.90;;;;;;5053869;28;20029;-79
2021/03/13 06:19:57;;;;;;;54.67;16.17;;;4.00;99.90;;;;;;5053468;28;20111;-80
2021/03/13 06:22:32;;;;;;;62.40;16.92;;;4.00;99.90;;;;;;5053775;28;20028;-80
2021/03/13 06:25:21;;;;;;;48.70;16.13;;;4.10;99.90;;;;;;5052768;28;20111;-79
2021/03/13 06:28:03;;;;;;;62.60;16.42;;;4.10;99.90;;;;;;5053468;28;20025;-79
2021/03/13 06:30:34;;;;;;;54.75;17.70;;;4.10;99.90;;;;;;5053608;28;20393;-79
2021/03/13 06:33:00;;;;;;;45.05;15.90;;;4.20;99.90;;;;;;5035450;28;20111;-79
2021/03/13 06:35:29;;;;;;;47.20;16.00;;;4.10;99.90;;;;;;5034918;28;20397;-79
2021/03/13 06:37:57;;;;;;;56.05;15.77;;;4.10;99.90;;;;;;5053490;28;20021;-79
2021/03/13 06:40:34;;;;;;;53.67;17.85;;;4.20;99.90;;;;;;5053275;28;20033;-79
2021/03/13 06:43:16;;;;;;;55.60;17.38;;;4.20;99.90;;;;;;5053375;28;20094;-78
2021/03/13 06:46:01;;;;;;;49.42;15.88;;;4.20;99.90;;;;;;5052382;28;20033;-79
2021/03/13 06:48:36;;;;;;;49.90;16.80;;;4.20;99.90;;;;;;5052997;28;20021;-79
2021/03/13 06:51:20;;;;;;;57.38;16.75;;;4.20;99.90;;;;;;5053186;28;20032;-79
2021/03/13 06:54:05;;;;;;;43.08;16.45;;;4.20;99.90;;;;;;5052134;28;20032;-79
2021/03/13 06:56:33;;;;;;;44.58;16.05;;;4.20;99.90;;;;;;5052924;28;20538;-79
2021/03/13 06:59:00;;;;;;;50.42;16.75;;;4.20;99.90;;;;;;5052939;28;20024;-79
2021/03/13 07:01:31;;;;;;;44.40;14.82;;;4.30;99.90;;;;;;5053058;28;20013;-79
2021/03/13 07:03:58;;;;;;;55.13;16.88;;;4.30;99.90;;;;;;5051663;28;20393;-79
2021/03/13 07:06:24;;;;;;;45.53;16.48;;;4.30;99.90;;;;;;5053046;28;20037;-79
2021/03/13 07:08:52;;;;;;;51.17;17.40;;;4.30;99.90;;;;;;5035324;28;20024;-79
2021/03/13 07:11:21;;;;;;;36.08;16.02;;;4.30;99.90;;;;;;5052935;28;20025;-78
2021/03/13 07:13:53;;;;;;;43.50;17.58;;;4.30;99.90;;;;;;5034273;28;20048;-79
2021/03/13 07:16:24;;;;;;;53.40;17.55;;;4.30;99.90;;;;;;5052680;28;20457;-80
2021/03/13 07:18:50;;;;;;;49.97;18.08;;;4.30;99.90;;;;;;5052200;28;20017;-79
2021/03/13 07:21:17;;;;;;;46.80;16.58;;;4.30;99.90;;;;;;5034717;28;20396;-79
2021/03/13 07:23:44;;;;;;;45.03;14.77;;;4.40;99.90;;;;;;5051735;28;20559;-78
2021/03/13 07:26:10;;;;;;;44.95;15.40;;;4.40;99.90;;;;;;5052118;28;20455;-79
2021/03/13 07:28:42;;;;;;;38.13;15.77;;;4.40;99.90;;;;;;5052508;28;20381;-79
2021/03/13 07:31:17;;;;;;;39.45;14.10;;;4.40;99.90;;;;;;5052389;28;20025;-79
2021/03/13 07:33:47;;;;;;;40.47;14.77;;;4.40;99.90;;;;;;5051467;28;20017;-79
2021/03/13 07:36:18;;;;;;;33.97;13.45;;;4.40;99.90;;;;;;5052045;28;20040;-79
2021/03/13 07:38:44;;;;;;;38.70;13.60;;;4.50;99.90;;;;;;5034420;28;20043;-79
2021/03/13 07:41:14;;;;;;;32.22;13.10;;;4.50;99.90;;;;;;5052181;28;20013;-79
2021/03/13 07:43:42;;;;;;;34.28;12.73;;;4.50;99.90;;;;;;5051428;28;20102;-78
2021/03/13 07:46:09;;;;;;;28.90;13.32;;;4.50;99.90;;;;;;5052103;28;20029;-79
2021/03/13 07:48:41;;;;;;;40.75;14.43;;;4.50;99.90;;;;;;5051515;28;20087;-79
2021/03/13 07:51:08;;;;;;;38.90;14.20;;;4.50;99.90;;;;;;5052034;28;20103;-78
2021/03/13 07:53:42;;;;;;;41.35;15.02;;;4.50;99.90;;;;;;5052050;28;20023;-78
2021/03/13 07:56:13;;;;;;;45.92;15.60;;;4.50;99.90;;;;;;5051064;28;20028;-78
2021/03/13 07:58:42;;;;;;;37.78;15.68;;;4.50;99.90;;;;;;5052002;28;20021;-79
2021/03/13 08:01:09;;;;;;;42.65;16.02;;;4.50;99.90;;;;;;5029115;28;20397;-79
2021/03/13 08:03:35;;;;;;;34.58;14.27;;;4.50;99.90;;;;;;5031999;28;20225;-79
2021/03/13 08:06:05;;;;;;;39.47;15.02;;;4.40;99.90;;;;;;5051802;28;20021;-79
2021/03/13 08:08:47;;;;;;;31.17;13.63;;;4.50;99.90;;;;;;5051249;28;20021;-79
2021/03/13 08:11:14;;;;;;;25.60;14.65;;;4.40;99.90;;;;;;5056123;28;20412;-78
2021/03/13 08:13:40;;;;;;;18.98;8.75;;;4.40;99.90;;;;;;5068851;28;20021;-79
2021/03/13 08:16:30;;;;;;;30.42;11.73;;;4.30;99.90;;;;;;5050343;28;20017;-78
2021/03/13 08:18:57;;;;;;;20.38;10.07;;;4.30;99.90;;;;;;5050673;28;20697;-79
2021/03/13 08:21:23;;;;;;;16.73;9.93;;;4.30;99.90;;;;;;5051358;28;20043;-78
2021/03/13 08:23:52;;;;;;;17.20;9.57;;;4.30;99.90;;;;;;5050075;28;20021;-77
2021/03/13 08:26:20;;;;;;;17.17;10.18;;;4.30;99.90;;;;;;5031492;28;20029;-77
2021/03/13 08:28:45;;;;;;;21.98;12.25;;;4.30;99.90;;;;;;5031264;28;20045;-78
2021/03/13 08:31:27;;;;;;;22.13;10.18;;;4.30;99.90;;;;;;5030165;28;20386;-76
2021/03/13 08:34:01;;;;;;;16.95;9.30;;;4.20;99.90;;;;;;5037800;28;20535;-77
2021/03/13 08:36:30;;;;;;;16.90;9.57;;;4.20;99.90;;;;;;5051094;28;20033;-77
2021/03/13 08:38:55;;;;;;;15.35;9.57;;;4.10;99.90;;;;;;5051172;28;20017;-78
2021/03/13 08:41:39;;;;;;;16.60;8.82;;;4.10;99.90;;;;;;5051268;28;20508;-78
2021/03/13 08:44:05;;;;;;;12.88;8.48;;;4.10;99.90;;;;;;5032261;28;20516;-77
2021/03/13 08:46:55;;;;;;;16.83;9.02;;;4.10;99.90;;;;;;5050662;28;20049;-78
2021/03/13 08:49:21;;;;;;;14.23;8.73;;;4.10;99.90;;;;;;5050787;28;20633;-78
2021/03/13 08:51:46;;;;;;;13.23;8.85;;;4.10;99.90;;;;;;5051128;28;20021;-78
2021/03/13 08:54:12;;;;;;;10.93;6.90;;;4.10;99.90;;;;;;5050560;28;20027;-78
2021/03/13 08:56:44;;;;;;;17.17;8.15;;;4.10;99.90;;;;;;5032779;28;20408;-79
2021/03/13 08:59:20;;;;;;;13.88;7.47;;;4.10;99.90;;;;;;5031218;28;20497;-79
2021/03/13 09:02:21;;;;;;;16.25;8.10;;;4.10;99.90;;;;;;5031226;28;20040;-78
2021/03/13 09:04:51;;;;;;;12.57;6.65;;;4.10;99.90;;;;;;5044473;28;20966;-78
2021/03/13 09:07:22;;;;;;;10.68;7.03;;;4.00;99.90;;;;;;5051173;28;20151;-79
2021/03/13 09:09:48;;;;;;;17.20;7.07;;;4.00;99.90;;;;;;5050953;28;20036;-78
2021/03/13 09:12:16;;;;;;;10.52;6.15;;;4.00;99.90;;;;;;5051054;28;20519;-78
2021/03/13 09:14:50;;;;;;;9.88;4.95;;;4.00;99.90;;;;;;5049934;28;20029;-78
2021/03/13 09:17:16;;;;;;;;;;;4.00;99.90;;;;;;5051375;28;20029;-79
2021/03/13 09:19:43;;;;;;;7.40;4.68;;;3.90;99.90;;;;;;5050469;28;20384;-78
2021/03/13 09:22:17;;;;;;;5.32;3.63;;;3.90;99.90;;;;;;5032823;28;20413;-78
2021/03/13 09:24:44;;;;;;;14.50;4.35;;;3.90;99.90;;;;;;5050127;28;20028;-78
2021/03/13 09:27:09;;;;;;;8.77;3.83;;;3.90;99.90;;;;;;5048995;28;20117;-78
2021/03/13 09:29:40;;;;;;;7.80;3.72;;;3.90;99.90;;;;;;5047063;28;20104;-79
2021/03/13 09:32:11;;;;;;;4.68;3.30;;;3.80;99.90;;;;;;5033559;28;20072;-79
2021/03/13 09:34:38;;;;;;;6.03;3.90;;;3.80;99.90;;;;;;5046999;28;20431;-79
2021/03/13 09:37:14;;;;;;;7.82;3.65;;;3.80;99.90;;;;;;5036573;28;20402;-79
2021/03/13 09:39:41;;;;;;;7.35;2.95;;;3.90;99.90;;;;;;5036927;28;20064;-79
2021/03/13 09:42:09;;;;;;;5.57;3.63;;;3.90;99.90;;;;;;5036125;28;20032;-79
2021/03/13 09:44:41;;;;;;;5.50;3.42;;;3.90;99.90;;;;;;5053684;28;20025;-80
2021/03/13 09:47:27;;;;;;;4.88;3.42;;;4.00;99.90;;;;;;5036343;28;20392;-80
2021/03/13 09:49:58;;;;;;;8.85;4.35;;;4.10;99.90;;;;;;5051762;28;20021;-79
2021/03/13 09:52:31;;;;;;;8.55;4.00;;;4.10;99.90;;;;;;5054629;28;20027;-79
2021/03/13 09:55:18;;;;;;;13.52;4.00;;;4.20;99.90;;;;;;5053725;28;20021;-79
2021/03/13 09:57:46;;;;;;;8.25;4.43;;;4.30;99.90;;;;;;5036359;28;20025;-79
2021/03/13 10:00:12;;;;;;;5.18;3.50;;;4.30;99.90;;;;;;5054046;28;20485;-79
2021/03/13 10:02:39;;;;;;;7.53;3.80;;;4.40;99.90;;;;;;5036316;28;20025;-79
2021/03/13 10:05:06;;;;;;;7.28;3.83;;;4.50;99.90;;;;;;5052908;28;20752;-79
2021/03/13 10:07:37;;;;;;;6.65;3.53;;;4.60;99.90;;;;;;5053862;28;20059;-79
2021/03/13 10:10:03;;;;;;;11.10;4.00;;;4.60;99.90;;;;;;5053936;28;20489;-79
2021/03/13 10:12:33;;;;;;;7.75;4.00;;;4.60;99.90;;;;;;5053829;28;20029;-80
2021/03/13 10:15:10;;;;;;;7.50;3.65;;;4.70;99.90;;;;;;5053143;28;20111;-79
2021/03/13 10:18:02;;;;;;;10.80;3.60;;;4.70;99.90;;;;;;5036148;28;20508;-79
2021/03/13 10:20:31;;;;;;;5.63;3.75;;;4.70;99.90;;;;;;5053685;28;20109;-79
2021/03/13 10:23:10;;;;;;;14.10;2.50;;;4.70;99.90;;;;;;5051628;28;20556;-79
2021/03/13 10:25:38;;;;;;;6.45;2.40;;;4.80;99.90;;;;;;5052806;28;20503;-79
2021/03/13 10:28:14;;;;;;;20.85;2.58;;;4.80;99.90;;;;;;5053592;28;20107;-79
2021/03/13 10:30:42;;;;;;;20.05;3.55;;;4.90;99.90;;;;;;5053534;28;20032;-79
2021/03/13 10:33:08;;;;;;;20.20;3.72;;;4.90;99.90;;;;;;5052985;28;20512;-79
2021/03/13 10:35:35;;;;;;;19.83;4.15;;;5.00;99.90;;;;;;5052848;28;20032;-79
2021/03/13 10:38:08;;;;;;;24.13;3.97;;;5.00;99.90;;;;;;5047797;28;21473;-79
2021/03/13 10:40:38;;;;;;;27.60;3.50;;;5.00;99.90;;;;;;5053037;28;20021;-79
2021/03/13 10:43:13;;;;;;;22.77;4.20;;;5.10;99.90;;;;;;5053414;28;20029;-79
2021/03/13 10:45:45;;;;;;;25.83;3.63;;;5.20;99.90;;;;;;5034351;28;20029;-79
2021/03/13 10:48:12;;;;;;;24.65;3.30;;;5.40;99.90;;;;;;5052958;28;20098;-78
2021/03/13 10:50:40;;;;;;;35.13;3.13;;;5.50;99.90;;;;;;5035060;28;20516;-79
2021/03/13 10:53:28;;;;;;;29.77;5.82;;;5.90;99.90;;;;;;5034770;28;20500;-79
2021/03/13 10:56:06;;;;;;;39.60;4.28;;;6.30;99.90;;;;;;5052343;28;20641;-79
2021/03/13 10:58:34;;;;;;;30.60;4.22;;;6.30;99.90;;;;;;5052605;28;20033;-80
2021/03/13 11:01:01;;;;;;;18.80;3.35;;;6.30;99.90;;;;;;5034859;28;20045;-80
2021/03/13 11:03:27;;;;;;;39.33;4.07;;;6.40;99.90;;;;;;5034521;28;20477;-79
2021/03/13 11:05:53;;;;;;;30.63;4.45;;;6.40;99.90;;;;;;5031544;28;20025;-80
2021/03/13 11:08:20;;;;;;;39.78;5.43;;;6.50;99.90;;;;;;5051093;28;20103;-79
2021/03/13 11:10:46;;;;;;;37.35;4.60;;;6.50;99.90;;;;;;5051743;28;20100;-79
2021/03/13 11:13:12;;;;;;;26.52;4.53;;;6.50;99.90;;;;;;5034636;28;20017;-79
2021/03/13 11:15:38;;;;;;;28.42;3.42;;;6.70;99.90;;;;;;5052132;28;20028;-79
2021/03/13 11:18:04;;;;;;;17.23;2.70;;;6.60;99.90;;;;;;5052492;28;20029;-79
2021/03/13 11:20:30;;;;;;;18.73;2.75;;;6.40;99.90;;;;;;5052578;28;20036;-79
2021/03/13 11:22:56;;;;;;;24.83;3.17;;;6.50;99.90;;;;;;5051979;28;20025;-80
2021/03/13 11:25:21;;;;;;;22.27;3.53;;;6.70;99.90;;;;;;5051789;28;20037;-79
2021/03/13 11:27:47;;;;;;;22.70;2.65;;;6.60;99.90;;;;;;5052152;28;20401;-79
2021/03/13 11:30:13;;;;;;;21.23;3.88;;;6.60;99.90;;;;;;5034470;28;20013;-80
2021/03/13 11:32:39;;;;;;;18.73;2.92;;;6.40;99.90;;;;;;5033641;28;20028;-79
2021/03/13 11:35:07;;;;;;;29.05;3.15;;;6.30;99.90;;;;;;5033606;28;20107;-79
2021/03/13 11:37:33;;;;;;;31.60;4.45;;;6.20;99.90;;;;;;5034356;28;20036;-79
2021/03/13 11:39:58;;;;;;;31.15;3.42;;;6.20;99.90;;;;;;5033824;28;20033;-79
2021/03/13 11:42:30;;;;;;;35.45;3.95;;;6.50;99.90;;;;;;5033782;28;20489;-79
2021/03/13 11:44:57;;;;;;;21.05;4.13;;;6.70;99.90;;;;;;5051390;28;20025;-78
2021/03/13 11:47:23;;;;;;;27.35;3.97;;;6.70;99.90;;;;;;5034246;28;20116;-84
2021/03/13 11:49:50;;;;;;;33.03;4.15;;;6.60;99.90;;;;;;5032946;28;20040;-78
2021/03/13 11:52:18;;;;;;;41.92;4.75;;;6.50;99.90;;;;;;5051539;28;20028;-78
2021/03/13 11:54:44;;;;;;;32.03;4.10;;;6.50;99.90;;;;;;5048977;28;20025;-77
2021/03/13 11:57:10;;;;;;;36.83;3.45;;;6.50;99.90;;;;;;5051143;28;20497;-78
2021/03/13 11:59:35;;;;;;;32.28;3.70;;;6.70;99.90;;;;;;5051937;28;20032;-78
2021/03/13 12:02:01;;;;;;;30.08;4.72;;;6.80;99.90;;;;;;5051903;28;20032;-78
2021/03/13 12:04:26;;;;;;;35.30;5.20;;;6.90;99.90;;;;;;5050787;28;20064;-78
2021/03/13 12:06:52;;;;;;;31.13;3.53;;;7.20;99.90;;;;;;5051082;28;20064;-77
2021/03/13 12:09:17;;;;;;;39.78;4.03;;;7.40;99.90;;;;;;5051418;28;20082;-77
2021/03/13 12:11:43;;;;;;;29.00;5.68;;;7.60;99.90;;;;;;5033653;28;20025;-78
2021/03/13 12:14:09;;;;;;;38.53;4.65;;;8.20;99.90;;;;;;5050955;28;20140;-76
2021/03/13 12:16:35;;;;;;;43.50;5.35;;;8.30;99.90;;;;;;5051674;28;20025;-78
2021/03/13 12:19:01;;;;;;;30.63;4.10;;;8.40;99.90;;;;;;5051337;28;20033;-78
2021/03/13 12:21:27;;;;;;;24.05;4.43;;;8.40;99.90;;;;;;5051560;28;20021;-77
2021/03/13 12:23:52;;;;;;;51.05;5.10;;;8.10;99.90;;;;;;5050245;28;20041;-77
2021/03/13 12:26:18;;;;;;;30.20;5.13;;;7.80;99.90;;;;;;5051473;28;20117;-77
2021/03/13 12:28:44;;;;;;;35.33;5.53;;;7.60;99.90;;;;;;5051331;28;20021;-78
2021/03/13 12:31:10;;;;;;;33.58;4.53;;;7.40;99.90;;;;;;5051313;28;20549;-77
2021/03/13 12:33:35;;;;;;;34.35;5.45;;;7.30;99.90;;;;;;5029704;28;20128;-77
2021/03/13 12:36:01;;;;;;;35.05;4.97;;;7.30;99.90;;;;;;5050897;28;20036;-78
2021/03/13 12:38:27;;;;;;;48.30;5.45;;;7.30;99.90;;;;;;5050946;28;20070;-78
2021/03/13 12:40:53;;;;;;;37.50;6.38;;;7.50;99.90;;;;;;5033205;28;20463;-77
2021/03/13 12:43:19;;;;;;;32.40;4.68;;;7.00;99.90;;;;;;5033553;28;20029;-77
2021/03/13 12:45:44;;;;;;;39.45;4.90;;;6.40;99.90;;;;;;5030259;28;20037;-78
2021/03/13 12:48:10;;;;;;;49.10;7.63;;;6.10;99.90;;;;;;5051054;28;20025;-77
2021/03/13 12:50:36;;;;;;;37.42;5.80;;;6.20;99.90;;;;;;5052820;28;20413;-77